Time;durP1;ratioP1;P1;durP2;ratioP2;P2;SDS_P1;SDS_P2;PMS_P1;PMS_P2;Temp;Humidity;BMP_temperature;BMP_pressure;BME280_temperature;BME280_humidity;BME280_pressure;Samples;Min_cycle;Max_cycle;Signal;HPM_P1;HPM_P2
2021/11/06 10:04:13;;;;;;;1999.90;999.90;;;;;;;11.51;87.57;165470.13;5074096;27;20393;-66
2021/11/06 10:06:44;;;;;;;1999.90;999.90;;;;;;;12.50;82.42;165736.22;5071977;28;20056;-66
2021/11/06 10:09:16;;;;;;;1999.90;999.90;;;;;;;13.20;79.03;165922.38;5071824;28;20318;-66
2021/11/06 10:11:45;;;;;;;1999.90;999.90;;;;;;;13.82;77.67;166088.00;5073439;28;20283;-66
2021/11/06 10:14:21;;;;;;;1999.90;999.90;;;;;;;13.86;76.13;166099.00;5073536;28;20739;-66
2021/11/06 10:16:56;;;;;;;1999.90;999.90;;;;;;;13.29;75.62;165945.81;5070268;28;20076;-68
2021/11/06 10:19:45;;;;;;;1999.90;999.90;;;;;;;12.95;76.30;165856.19;5072604;28;20045;-67
2021/11/06 10:22:15;;;;;;;1999.90;999.90;;;;;;;12.95;76.87;165856.19;5072546;28;20044;-67
2021/11/06 10:24:49;;;;;;;1999.90;999.90;;;;;;;13.08;77.29;165889.28;5072708;28;20089;-67
2021/11/06 10:27:21;;;;;;;1999.90;999.90;;;;;;;12.95;77.62;165856.19;5073281;28;20084;-67
2021/11/06 10:30:08;;;;;;;1999.90;999.90;;;;;;;12.88;78.72;165835.47;5073467;28;20130;-67
2021/11/06 10:32:35;;;;;;;1999.90;999.90;;;;;;;12.51;79.58;165737.56;5071317;28;20125;-67
2021/11/06 10:35:13;;;;;;;1999.90;999.90;;;;;;;12.56;79.37;165749.97;5070554;28;20137;-67
2021/11/06 10:37:40;;;;;;;1999.90;999.90;;;;;;;13.09;77.11;165892.06;5072333;28;20488;-67
2021/11/06 10:40:10;;;;;;;1999.90;999.90;;;;;;;12.75;76.31;165801.00;5072375;28;20056;-68
2021/11/06 10:42:48;;;;;;;1999.90;999.90;;;;;;;12.28;75.96;165675.50;5070335;28;20072;-67
2021/11/06 10:45:17;;;;;;;1999.90;999.90;;;;;;;12.27;76.30;165674.16;5073348;28;20213;-67
2021/11/06 10:48:05;;;;;;;1999.90;999.90;;;;;;;12.06;76.17;165617.63;5073008;28;20080;-67
2021/11/06 10:51:02;;;;;;;1999.90;999.90;;;;;;;12.14;76.88;165639.66;5071024;28;20101;-67
2021/11/06 10:53:50;;;;;;;1999.90;999.90;;;;;;;12.28;76.44;165676.94;5070688;28;20040;-68
2021/11/06 10:56:23;;;;;;;1999.90;999.90;;;;;;;12.25;75.78;165668.66;5072811;28;20121;-67
2021/11/06 10:58:52;;;;;;;1999.90;999.90;;;;;;;12.46;75.52;165723.75;5067144;28;20182;-67
2021/11/06 11:01:22;;;;;;;1999.90;999.90;;;;;;;12.41;75.85;165710.00;5070774;28;20094;-67
2021/11/06 11:03:50;;;;;;;1999.90;999.90;;;;;;;12.49;75.33;165733.44;5070871;28;20052;-67
2021/11/06 11:06:19;;;;;;;1999.90;999.90;;;;;;;12.56;75.15;165751.34;5069595;28;20083;-67
2021/11/06 11:08:51;;;;;;;1999.90;999.90;;;;;;;12.86;74.05;165832.75;5069114;28;20121;-66
2021/11/06 11:11:21;;;;;;;1999.90;999.90;;;;;;;12.74;73.17;165798.25;5071562;28;20079;-66
2021/11/06 11:14:03;;;;;;;1999.90;999.90;;;;;;;12.85;74.37;165829.97;5065390;28;20099;-66
2021/11/06 11:16:32;;;;;;;1999.90;999.90;;;;;;;12.83;73.57;165824.47;5056462;28;21504;-66
2021/11/06 11:19:09;;;;;;;1999.90;999.90;;;;;;;12.54;76.36;165745.84;5055962;28;20103;-66
2021/11/06 11:21:42;;;;;;;1999.90;999.90;;;;;;;12.80;75.39;165816.19;5056349;28;20526;-66
2021/11/06 11:24:27;;;;;;;1999.90;999.90;;;;;;;12.86;76.85;165832.75;5056624;28;20072;-66
2021/11/06 11:26:57;;;;;;;1999.90;999.90;;;;;;;12.83;76.44;165823.06;5057275;28;20500;-66
2021/11/06 11:29:29;;;;;;;1999.90;999.90;;;;;;;12.56;75.64;165749.97;5056710;28;20076;-66
2021/11/06 11:31:57;;;;;;;1999.90;999.90;;;;;;;12.21;77.27;165657.63;5055926;28;20057;-66
2021/11/06 11:34:23;;;;;;;1999.90;999.90;;;;;;;11.94;78.24;165585.94;5057379;28;20127;-66
2021/11/06 11:36:52;;;;;;;1999.90;999.90;;;;;;;12.07;74.87;165619.00;5054835;28;20075;-66
2021/11/06 11:39:21;;;;;;;1999.90;999.90;;;;;;;11.94;75.12;165585.94;5046126;28;20133;-66
2021/11/06 11:42:13;;;;;;;1999.90;999.90;;;;;;;11.94;75.07;165585.94;5040333;28;20432;-66
2021/11/06 11:44:52;;;;;;;1999.90;999.90;;;;;;;12.12;74.56;165634.16;5038598;28;20145;-66
2021/11/06 11:47:34;;;;;;;1999.90;999.90;;;;;;;12.60;73.92;165762.38;5040394;28;20141;-66
2021/11/06 11:50:05;;;;;;;1999.90;999.90;;;;;;;12.51;73.83;165737.56;5040035;28;20311;-66
2021/11/06 11:52:37;;;;;;;1999.90;999.90;;;;;;;12.61;74.58;165765.16;5038179;28;20107;-66
2021/11/06 11:55:08;;;;;;;1999.90;999.90;;;;;;;12.49;74.31;165733.44;5039679;28;20091;-66
2021/11/06 11:57:36;;;;;;;1999.90;999.90;;;;;;;12.86;73.94;165831.31;5038643;28;20133;-66
2021/11/06 12:00:18;;;;;;;1999.90;999.90;;;;;;;12.91;73.59;165843.78;5038591;28;20218;-66
2021/11/06 12:02:59;;;;;;;1999.90;999.90;;;;;;;12.45;73.86;165722.41;5040790;28;20061;-66
2021/11/06 12:05:37;;;;;;;1999.90;999.90;;;;;;;11.97;74.85;165594.19;5038653;28;20129;-66
2021/11/06 12:08:09;;;;;;;1999.90;999.90;;;;;;;12.55;74.99;165748.63;5038494;28;20055;-66
2021/11/06 12:10:44;;;;;;;1999.90;999.90;;;;;;;12.28;73.57;165676.94;5040401;28;20063;-66
2021/11/06 12:13:30;;;;;;;1999.90;999.90;;;;;;;12.33;73.67;165690.69;5038939;28;20227;-66
2021/11/06 12:15:56;;;;;;;1999.90;999.90;;;;;;;12.39;73.59;165704.50;5038762;28;20080;-66
2021/11/06 12:18:41;;;;;;;1999.90;999.90;;;;;;;12.12;75.60;165632.81;5039895;28;20098;-66
2021/11/06 12:21:18;;;;;;;1999.90;999.90;;;;;;;11.84;76.00;165558.31;5037953;28;20118;-66
2021/11/06 12:23:51;;;;;;;1999.90;999.90;;;;;;;12.22;74.12;165660.38;5039156;28;20055;-66
2021/11/06 12:26:22;;;;;;;1999.90;999.90;;;;;;;12.18;74.64;165649.34;5040281;28;20075;-66
2021/11/06 12:29:10;;;;;;;1999.90;999.90;;;;;;;12.79;73.60;165812.06;5037559;28;20056;-66
2021/11/06 12:31:45;;;;;;;1999.90;999.90;;;;;;;12.77;73.07;165806.50;5038885;28;20098;-66
2021/11/06 12:34:47;;;;;;;1999.90;999.90;;;;;;;12.33;75.21;165690.69;5039437;28;20139;-67
2021/11/06 12:37:36;;;;;;;1999.90;999.90;;;;;;;12.12;76.72;165634.16;5037388;28;20110;-66
2021/11/06 12:40:06;;;;;;;1999.90;999.90;;;;;;;12.03;78.39;165607.97;5037174;28;20774;-66
2021/11/06 12:42:32;;;;;;;1999.90;999.90;;;;;;;12.23;76.80;165663.09;5038150;28;20102;-66
2021/11/06 12:45:02;;;;;;;1999.90;999.90;;;;;;;12.65;75.67;165776.19;5038341;28;20151;-66
2021/11/06 12:47:31;;;;;;;1999.90;999.90;;;;;;;12.95;75.40;165854.78;5036816;28;20710;-66
2021/11/06 12:49:58;;;;;;;1999.90;999.90;;;;;;;12.82;75.76;165820.34;5038212;28;20079;-66
2021/11/06 12:52:27;;;;;;;1999.90;999.90;;;;;;;12.24;77.34;165665.88;5037089;28;20653;-66
2021/11/06 12:54:59;;;;;;;1999.90;999.90;;;;;;;12.06;77.98;165616.22;5037605;28;20158;-66
2021/11/06 12:57:37;;;;;;;1999.90;999.90;;;;;;;12.15;78.08;165642.44;5035994;28;20144;-66
2021/11/06 13:00:10;;;;;;;1999.90;999.90;;;;;;;12.01;76.70;165603.81;5036500;28;20193;-66
2021/11/06 13:02:51;;;;;;;1999.90;999.90;;;;;;;12.28;77.32;165676.94;5037922;28;20102;-66
2021/11/06 13:05:20;;;;;;;1999.90;999.90;;;;;;;12.32;77.94;165686.56;5035957;28;20082;-66
2021/11/06 13:07:47;;;;;;;1999.90;999.90;;;;;;;12.62;77.13;165767.94;5036680;28;20163;-66
2021/11/06 13:10:22;;;;;;;1999.90;999.90;;;;;;;12.04;77.83;165610.72;5038647;28;20048;-66
2021/11/06 13:13:04;;;;;;;1999.90;999.90;;;;;;;12.29;77.22;165679.66;5037357;28;20493;-66
2021/11/06 13:15:36;;;;;;;1999.90;999.90;;;;;;;12.06;77.56;165616.22;5037447;28;20526;-66
2021/11/06 13:18:17;;;;;;;1999.90;999.90;;;;;;;11.99;77.87;165598.31;5038044;28;20643;-66
2021/11/06 13:20:45;;;;;;;1999.90;999.90;;;;;;;12.53;76.64;165741.72;5037684;28;20072;-66
2021/11/06 13:23:13;;;;;;;1999.90;999.90;;;;;;;12.65;75.96;165776.19;5036182;28;20145;-66
2021/11/06 13:25:44;;;;;;;1999.90;999.90;;;;;;;12.41;75.77;165710.00;5038007;28;20052;-66
2021/11/06 13:28:21;;;;;;;1999.90;999.90;;;;;;;12.44;75.94;165719.63;5037888;28;20080;-66
2021/11/06 13:30:51;;;;;;;1999.90;999.90;;;;;;;12.80;74.39;165814.78;5037444;28;20079;-66
2021/11/06 13:33:34;;;;;;;1999.90;999.90;;;;;;;12.83;73.17;165823.06;5037986;28;20117;-66
2021/11/06 13:36:07;;;;;;;1999.90;999.90;;;;;;;12.62;73.41;165767.94;5037416;28;20707;-67
2021/11/06 13:38:51;;;;;;;1999.90;999.90;;;;;;;12.66;73.53;165778.94;5036128;28;20175;-66
2021/11/06 13:41:25;;;;;;;1999.90;999.90;;;;;;;12.98;72.61;165864.47;5037533;28;20052;-66
2021/11/06 13:44:02;;;;;;;1999.90;999.90;;;;;;;12.91;72.27;165843.78;5037892;28;20147;-66
2021/11/06 13:46:34;;;;;;;1999.90;999.90;;;;;;;12.63;73.08;165770.66;5036274;28;20445;-66
2021/11/06 13:49:15;;;;;;;1999.90;999.90;;;;;;;12.58;73.34;165755.47;5036290;28;21081;-66
2021/11/06 13:51:47;;;;;;;1999.90;999.90;;;;;;;12.85;72.73;165828.59;5037689;28;20110;-66
2021/11/06 13:54:15;;;;;;;1999.90;999.90;;;;;;;12.75;71.52;165801.00;5037143;28;20139;-66
2021/11/06 13:56:47;;;;;;;1999.90;999.90;;;;;;;12.53;71.87;165741.72;5037762;28;20098;-67
2021/11/06 13:59:14;;;;;;;;;;;;;;;12.64;71.78;165773.44;5036947;28;20459;-66
2021/11/06 14:01:44;;;;;;;1999.90;999.90;;;;;;;12.75;71.03;165801.00;5035594;28;21356;-66
2021/11/06 14:04:11;;;;;;;1999.90;999.90;;;;;;;12.47;70.63;165727.91;5036788;28;20072;-67
2021/11/06 14:06:45;;;;;;;1999.90;999.90;;;;;;;12.13;71.26;165635.53;5035387;28;20133;-67
2021/11/06 14:09:15;;;;;;;1999.90;999.90;;;;;;;12.42;71.16;165712.78;5036781;28;20494;-67
2021/11/06 14:11:59;;;;;;;1999.90;999.90;;;;;;;12.15;71.61;165641.06;5037999;28;20076;-67
2021/11/06 14:14:47;;;;;;;1999.90;999.90;;;;;;;11.77;71.99;165540.38;5035575;28;20076;-67
2021/11/06 14:17:13;;;;;;;1999.90;999.90;;;;;;;11.71;72.92;165523.84;5037277;28;20449;-67
2021/11/06 14:20:09;;;;;;;1999.90;999.90;;;;;;;12.03;71.12;165609.38;5036904;28;20142;-67
2021/11/06 14:22:45;;;;;;;1999.90;999.90;;;;;;;12.21;71.32;165656.25;5022911;28;20052;-67
2021/11/06 14:25:27;;;;;;;1999.90;999.90;;;;;;;12.25;71.03;165668.66;5035674;28;20571;-67
2021/11/06 14:28:11;;;;;;;1999.90;999.90;;;;;;;12.20;71.21;165653.47;5036032;28;20157;-67
2021/11/06 14:30:56;;;;;;;1999.90;999.90;;;;;;;12.35;71.04;165694.81;5036359;28;20149;-67
2021/11/06 14:33:30;;;;;;;1999.90;999.90;;;;;;;12.23;71.30;165663.09;5035823;28;20079;-67
2021/11/06 14:36:23;;;;;;;1999.90;999.90;;;;;;;12.38;71.46;165701.72;5037122;28;21038;-66
2021/11/06 14:38:52;;;;;;;1999.90;999.90;;;;;;;12.49;70.88;165732.09;5035244;28;20076;-66
2021/11/06 14:41:40;;;;;;;1999.90;999.90;;;;;;;12.36;71.26;165696.22;5035780;28;20063;-66
2021/11/06 14:44:09;;;;;;;1999.90;999.90;;;;;;;12.41;71.48;165711.34;5035750;28;20048;-66
2021/11/06 14:46:52;;;;;;;1999.90;999.90;;;;;;;12.49;71.67;165732.09;5036004;28;21545;-66
2021/11/06 14:49:41;;;;;;;1999.90;999.90;;;;;;;12.39;71.42;165705.84;5036248;28;20509;-66
2021/11/06 14:52:15;;;;;;;1999.90;999.90;;;;;;;12.54;71.57;165745.84;5052998;28;20080;-66
2021/11/06 14:54:56;;;;;;;1999.90;999.90;;;;;;;12.59;71.79;165758.25;5040324;28;20384;-66
2021/11/06 14:57:32;;;;;;;1999.90;999.90;;;;;;;12.43;72.44;165716.91;5038755;28;20140;-66
2021/11/06 15:00:17;;;;;;;1999.90;999.90;;;;;;;11.96;76.56;165591.41;5039651;28;20147;-66
2021/11/06 15:03:18;;;;;;;1999.90;999.90;;;;;;;11.25;78.77;165401.22;5041534;28;20143;-66
2021/11/06 15:05:48;;;;;;;1999.90;999.90;;;;;;;10.84;79.15;165291.00;5040370;28;20080;-66
2021/11/06 15:08:19;;;;;;;1999.90;999.90;;;;;;;10.65;79.44;165240.03;5040259;28;20091;-66
2021/11/06 15:10:50;;;;;;;1999.90;999.90;;;;;;;10.84;78.95;165291.00;5040394;28;20080;-66
2021/11/06 15:13:21;;;;;;;1999.90;999.90;;;;;;;10.90;78.88;165307.53;5039948;28;20088;-66
2021/11/06 15:15:49;;;;;;;1999.90;999.90;;;;;;;11.06;78.40;165350.25;5039175;28;20079;-66
2021/11/06 15:18:18;;;;;;;1999.90;999.90;;;;;;;10.93;78.72;165314.44;5039810;28;20098;-67
2021/11/06 15:20:45;;;;;;;1999.90;999.90;;;;;;;10.86;78.63;165295.13;5039119;28;20076;-67
2021/11/06 15:23:14;;;;;;;1999.90;999.90;;;;;;;10.81;78.42;165282.75;5039657;28;21393;-67
2021/11/06 15:25:42;;;;;;;1999.90;999.90;;;;;;;10.64;78.74;165235.91;5040599;28;20074;-67
2021/11/06 15:28:11;;;;;;;1999.90;999.90;;;;;;;10.74;78.18;165263.47;5039078;28;20481;-67
2021/11/06 15:30:38;;;;;;;1999.90;999.90;;;;;;;10.87;77.50;165299.28;5038820;28;20080;-67
2021/11/06 15:33:05;;;;;;;1999.90;999.90;;;;;;;11.10;76.66;165359.88;5039285;28;20076;-67
2021/11/06 15:35:32;;;;;;;1999.90;999.90;;;;;;;10.98;76.67;165328.19;5039996;28;20159;-67
2021/11/06 15:37:59;;;;;;;1999.90;999.90;;;;;;;10.81;77.58;165282.75;5034583;28;20107;-67
2021/11/06 15:40:29;;;;;;;1999.90;999.90;;;;;;;10.78;77.58;165274.50;5054274;28;20052;-67
2021/11/06 15:42:56;;;;;;;1999.90;999.90;;;;;;;10.85;77.30;165293.78;5043167;28;20076;-67
2021/11/06 15:45:24;;;;;;;1999.90;999.90;;;;;;;10.86;77.23;165296.50;5037500;28;20583;-67
2021/11/06 15:47:55;;;;;;;1999.90;999.90;;;;;;;10.89;77.07;165303.41;5037420;28;20686;-67
2021/11/06 15:50:22;;;;;;;1999.90;999.90;;;;;;;10.84;77.40;165289.66;5035646;28;20438;-67
2021/11/06 15:52:52;;;;;;;1999.90;999.90;;;;;;;10.82;77.82;165284.09;5036446;28;20727;-67
2021/11/06 15:55:20;;;;;;;1999.90;999.90;;;;;;;10.81;77.82;165282.75;5036749;28;20218;-67
2021/11/06 15:57:46;;;;;;;1999.90;999.90;;;;;;;10.72;78.04;165259.31;5038047;28;20473;-67
2021/11/06 16:00:14;;;;;;;1999.90;999.90;;;;;;;10.65;78.15;165238.69;5035161;28;20150;-67
2021/11/06 16:02:40;;;;;;;1999.90;999.90;;;;;;;10.47;78.48;165191.84;5036724;28;20060;-67
2021/11/06 16:05:08;;;;;;;1999.90;999.90;;;;;;;10.37;79.30;165164.28;5037494;28;20385;-67
2021/11/06 16:07:37;;;;;;;1999.90;999.90;;;;;;;10.35;79.38;165158.81;5035237;28;20094;-67
2021/11/06 16:10:05;;;;;;;1999.90;999.90;;;;;;;10.27;79.44;165138.09;5036829;28;21144;-67
2021/11/06 16:12:32;;;;;;;1999.90;999.90;;;;;;;10.31;79.15;165147.72;5036544;28;20406;-67
2021/11/06 16:15:02;;;;;;;1999.90;999.90;;;;;;;10.31;79.47;165147.72;5041431;28;20236;-66
2021/11/06 16:17:30;;;;;;;1999.90;999.90;;;;;;;10.29;79.31;165142.22;5036508;28;20933;-66
2021/11/06 16:20:02;;;;;;;1999.90;999.90;;;;;;;10.21;80.18;165121.53;5035408;28;20137;-66
2021/11/06 16:22:30;;;;;;;1999.90;999.90;;;;;;;10.12;80.49;165098.13;5035338;28;20476;-66
2021/11/06 16:24:57;;;;;;;1999.90;999.90;;;;;;;9.98;81.04;165059.63;5035981;28;20177;-66
2021/11/06 16:27:32;;;;;;;1999.90;999.90;;;;;;;9.81;81.93;165015.56;5035398;28;20545;-66
2021/11/06 16:30:04;;;;;;;;;;;;;;;9.91;81.74;165041.69;5036995;28;20076;-66
2021/11/06 16:32:31;;;;;;;1999.90;999.90;;;;;;;9.65;82.72;164971.53;5035755;28;19928;-66
2021/11/06 16:34:59;;;;;;;1999.90;999.90;;;;;;;9.64;83.10;164970.13;5034954;28;20263;-66
2021/11/06 16:37:25;;;;;;;1999.90;999.90;;;;;;;9.41;84.19;164908.22;5032273;28;20110;-66
2021/11/06 16:39:52;;;;;;;1999.90;999.90;;;;;;;9.33;84.91;164887.59;5035911;28;20063;-66
2021/11/06 16:42:18;;;;;;;1999.90;999.90;;;;;;;9.23;85.15;164858.66;5044214;28;20080;-66
2021/11/06 16:44:45;;;;;;;1999.90;999.90;;;;;;;9.16;85.20;164842.16;5036203;28;20166;-66
2021/11/06 16:47:22;;;;;;;1999.90;999.90;;;;;;;8.98;85.77;164792.63;5035784;28;20067;-66
2021/11/06 16:49:49;;;;;;;1999.90;999.90;;;;;;;9.05;85.61;164810.50;5034629;28;20080;-66
2021/11/06 16:52:16;;;;;;;1999.90;999.90;;;;;;;8.76;86.38;164734.84;5033833;28;21235;-66
2021/11/06 16:54:43;;;;;;;1999.90;999.90;;;;;;;8.70;86.76;164718.34;5034631;28;20159;-66
2021/11/06 16:57:09;;;;;;;1999.90;999.90;;;;;;;8.82;86.30;164751.34;5035161;28;20067;-66
2021/11/06 16:59:36;;;;;;;1999.90;999.90;;;;;;;8.74;86.46;164729.34;5034577;28;20428;-66
2021/11/06 17:02:02;;;;;;;1999.90;999.90;;;;;;;9.14;85.02;164835.25;5040098;28;20166;-66
2021/11/06 17:04:29;;;;;;;1999.90;999.90;;;;;;;9.23;84.22;164858.66;5051462;28;20102;-66
2021/11/06 17:06:57;;;;;;;1999.90;999.90;;;;;;;9.41;83.68;164906.81;5049984;28;20055;-66
2021/11/06 17:10:14;;;;;;;1999.90;999.90;;;;;;;9.41;83.34;164908.22;5051243;28;20052;-66
2021/11/06 17:12:15;;;;;;;1999.90;999.90;;;;;;;9.30;83.78;164877.91;5049602;28;20084;-66
2021/11/06 17:14:41;;;;;;;1999.90;999.90;;;;;;;9.36;83.79;164893.06;5050363;28;20098;-67
2021/11/06 17:17:08;;;;;;;1999.90;999.90;;;;;;;9.07;84.51;164816.03;5051996;28;20587;-67
2021/11/06 17:19:34;;;;;;;1999.90;999.90;;;;;;;9.03;85.29;164805.00;5052104;28;20129;-66
2021/11/06 17:22:01;;;;;;;1999.90;999.90;;;;;;;8.73;86.91;164726.59;5052202;28;20076;-66
2021/11/06 17:24:28;;;;;;;1999.90;999.90;;;;;;;8.57;87.89;164682.56;5054214;28;20569;-66
2021/11/06 17:26:55;;;;;;;1999.90;999.90;;;;;;;8.71;87.71;164721.09;5050705;28;20064;-66
2021/11/06 17:29:21;;;;;;;1999.90;999.90;;;;;;;8.85;87.34;164756.88;5052844;28;20052;-67
2021/11/06 17:31:48;;;;;;;1999.90;999.90;;;;;;;8.60;88.35;164690.81;5052652;28;20137;-67
2021/11/06 17:34:15;;;;;;;1999.90;999.90;;;;;;;8.78;88.07;164740.38;5051255;28;20160;-67
2021/11/06 17:36:41;;;;;;;1999.90;999.90;;;;;;;8.49;89.75;164660.59;5052196;28;20052;-67
2021/11/06 17:39:08;;;;;;;1999.90;999.90;;;;;;;8.57;89.25;164682.56;5050819;28;20130;-67
2021/11/06 17:41:35;;;;;;;1999.90;999.90;;;;;;;8.44;89.68;164648.16;5050990;28;20139;-67
2021/11/06 17:44:02;;;;;;;1999.90;999.90;;;;;;;8.56;89.41;164681.22;5051699;28;20123;-67
2021/11/06 17:46:29;;;;;;;1999.90;999.90;;;;;;;8.62;89.55;164696.34;5050684;28;20438;-67
2021/11/06 17:48:56;;;;;;;1999.90;999.90;;;;;;;8.64;89.29;164701.84;5052485;28;20079;-67
2021/11/06 17:51:37;;;;;;;1999.90;999.90;;;;;;;8.51;90.16;164666.06;5051316;28;20140;-66
2021/11/06 17:54:03;;;;;;;1999.90;999.90;;;;;;;8.44;90.63;164649.59;5051006;28;20068;-66
2021/11/06 17:56:32;;;;;;;1999.90;999.90;;;;;;;8.17;92.07;164575.25;5052757;28;20522;-66
2021/11/06 17:59:01;;;;;;;1999.90;999.90;;;;;;;8.11;92.91;164561.53;5052224;28;20056;-66
2021/11/06 18:01:30;;;;;;;1999.90;999.90;;;;;;;7.90;94.06;164503.75;5051240;28;20052;-66
2021/11/06 18:03:57;;;;;;;1999.90;999.90;;;;;;;7.85;94.58;164491.38;5050522;28;20150;-66
2021/11/06 18:06:23;;;;;;;1999.90;999.90;;;;;;;7.93;94.48;164512.00;5051703;28;20080;-66
2021/11/06 18:08:50;;;;;;;1999.90;999.90;;;;;;;8.19;93.42;164580.78;5051908;28;20075;-65
2021/11/06 18:11:17;;;;;;;1999.90;999.90;;;;;;;8.18;93.63;164578.03;5052754;28;20425;-65
2021/11/06 18:13:44;;;;;;;1999.90;999.90;;;;;;;8.24;93.38;164594.50;5051536;28;20645;-65
2021/11/06 18:16:10;;;;;;;1999.90;999.90;;;;;;;8.20;93.28;164583.50;5052310;28;20053;-66
2021/11/06 18:18:38;;;;;;;1999.90;999.90;;;;;;;8.29;93.07;164608.25;5052371;28;20048;-66
2021/11/06 18:21:05;;;;;;;1999.90;999.90;;;;;;;8.09;94.02;164554.63;5050889;28;20072;-66
2021/11/06 18:23:32;;;;;;;1999.90;999.90;;;;;;;8.18;93.67;164578.03;5052480;28;20052;-67
2021/11/06 18:25:59;;;;;;;1999.90;999.90;;;;;;;8.10;93.86;164557.41;5056875;28;20139;-67
2021/11/06 18:28:25;;;;;;;1999.90;999.90;;;;;;;8.00;94.68;164531.25;5055918;28;20080;-67
2021/11/06 18:30:52;;;;;;;1999.90;999.90;;;;;;;8.05;94.02;164545.03;5057848;28;20198;-67
2021/11/06 18:33:19;;;;;;;1999.90;999.90;;;;;;;8.08;94.15;164553.28;5056462;28;20102;-68
2021/11/06 18:35:47;;;;;;;1999.90;999.90;;;;;;;7.82;95.79;164481.78;5054564;28;20079;-67
2021/11/06 18:38:14;;;;;;;1999.90;999.90;;;;;;;7.77;95.57;164469.41;5056689;28;20129;-67
2021/11/06 18:40:41;;;;;;;1999.90;999.90;;;;;;;8.06;94.55;164547.75;5056011;28;20052;-68
2021/11/06 18:43:07;;;;;;;1999.90;999.90;;;;;;;8.01;94.95;164532.59;5055752;28;20076;-67
2021/11/06 18:45:36;;;;;;;1999.90;999.90;;;;;;;7.78;95.95;164470.78;5056732;28;20099;-67
2021/11/06 18:48:16;;;;;;;1999.90;999.90;;;;;;;7.83;95.73;164485.91;5054828;28;20186;-67
2021/11/06 18:50:44;;;;;;;1999.90;999.90;;;;;;;8.02;94.98;164536.75;5055939;28;20079;-67
2021/11/06 18:53:11;;;;;;;1999.90;999.90;;;;;;;7.90;96.17;164505.16;5055904;28;20072;-67
2021/11/06 18:55:38;;;;;;;1999.90;999.90;;;;;;;7.89;95.90;164502.41;5055639;28;20507;-68
2021/11/06 18:58:04;;;;;;;1999.90;999.90;;;;;;;7.77;96.38;164469.41;5053974;28;20182;-68
2021/11/06 19:00:32;;;;;;;1999.90;999.90;;;;;;;8.07;95.35;164550.50;5056454;28;20080;-67
2021/11/06 19:02:59;;;;;;;1999.90;999.90;;;;;;;8.37;93.65;164628.91;5053075;28;20088;-67
2021/11/06 19:05:27;;;;;;;1999.90;999.90;;;;;;;8.30;93.49;164611.00;5055300;28;20056;-67
2021/11/06 19:07:54;;;;;;;1999.90;999.90;;;;;;;8.26;93.73;164600.00;5056994;28;20139;-67
2021/11/06 19:10:22;;;;;;;1999.90;999.90;;;;;;;8.39;93.34;164634.38;5053940;28;20296;-67
2021/11/06 19:12:49;;;;;;;1999.90;999.90;;;;;;;8.39;93.03;164635.75;5055687;28;20092;-67
2021/11/06 19:15:15;;;;;;;1999.90;999.90;;;;;;;8.35;93.34;164623.38;5054827;28;20076;-67
2021/11/06 19:17:42;;;;;;;1999.90;999.90;;;;;;;8.38;92.84;164631.63;5055134;28;20530;-67
2021/11/06 19:20:09;;;;;;;1999.90;999.90;;;;;;;8.49;92.18;164660.59;5055257;28;20129;-67
2021/11/06 19:22:36;;;;;;;1999.90;999.90;;;;;;;8.32;92.57;164616.53;5054786;28;20487;-67
2021/11/06 19:25:04;;;;;;;1999.90;999.90;;;;;;;8.18;93.37;164578.03;5055019;28;20076;-67
2021/11/06 19:27:42;;;;;;;1999.90;999.90;;;;;;;8.07;94.45;164549.16;5055673;28;20161;-67
2021/11/06 19:30:11;;;;;;;1999.90;999.90;;;;;;;7.83;95.15;164485.91;5055579;28;20397;-67
2021/11/06 19:32:38;;;;;;;1999.90;999.90;;;;;;;7.80;96.16;164476.25;5055428;28;20106;-67
2021/11/06 19:35:06;;;;;;;1999.90;999.90;;;;;;;7.65;96.62;164437.81;5055223;28;20044;-67
2021/11/06 19:37:36;;;;;;;1999.90;999.90;;;;;;;7.55;97.15;164411.66;5055500;28;20048;-67
2021/11/06 19:40:05;;;;;;;1999.90;999.90;;;;;;;7.46;97.56;164385.53;5055776;28;20319;-67
2021/11/06 19:42:35;;;;;;;1999.90;999.90;;;;;;;7.72;96.82;164455.66;5057071;28;20079;-67
2021/11/06 19:45:04;;;;;;;1999.90;999.90;;;;;;;7.50;97.39;164396.53;5054904;28;20335;-67
2021/11/06 19:47:31;;;;;;;1999.90;999.90;;;;;;;7.21;98.64;164319.59;5055236;28;20064;-67
2021/11/06 19:49:58;;;;;;;1999.90;999.90;;;;;;;7.31;98.41;164345.69;5055366;28;20080;-67
2021/11/06 19:52:24;;;;;;;1999.90;999.90;;;;;;;7.15;99.09;164303.13;5055161;28;20075;-67
2021/11/06 19:54:51;;;;;;;1999.90;999.90;;;;;;;7.27;98.75;164334.72;5056359;28;20072;-67
2021/11/06 19:57:19;;;;;;;1999.90;999.90;;;;;;;7.28;98.51;164338.84;5056007;28;20370;-68
2021/11/06 19:59:46;;;;;;;1999.90;999.90;;;;;;;7.09;99.30;164286.63;5054394;28;20147;-67
2021/11/06 20:02:13;;;;;;;1999.90;999.90;;;;;;;7.16;99.53;164305.81;5054348;28;20092;-67
2021/11/06 20:04:40;;;;;;;1999.90;999.90;;;;;;;7.22;98.97;164322.34;5054654;28;20080;-67
2021/11/06 20:07:06;;;;;;;1999.90;999.90;;;;;;;7.24;98.89;164327.84;5055363;28;20333;-67
2021/11/06 20:09:33;;;;;;;1999.90;999.90;;;;;;;7.74;96.52;164461.13;5053927;28;20377;-67
2021/11/06 20:12:00;;;;;;;1999.90;999.90;;;;;;;7.96;95.13;164518.88;5055361;28;20056;-68
2021/11/06 20:14:27;;;;;;;1999.90;999.90;;;;;;;7.63;95.68;164432.28;5054640;28;20062;-68
2021/11/06 20:16:54;;;;;;;1999.90;999.90;;;;;;;7.82;95.25;164483.13;5054170;28;20075;-67
2021/11/06 20:19:21;;;;;;;1999.90;999.90;;;;;;;7.99;93.78;164527.13;5052848;28;20489;-67
2021/11/06 20:21:48;;;;;;;1999.90;999.90;;;;;;;8.01;94.15;164534.03;5054804;28;20135;-67
2021/11/06 20:24:15;;;;;;;1999.90;999.90;;;;;;;7.69;95.17;164448.75;5055998;28;20149;-67
2021/11/06 20:26:43;;;;;;;1999.90;999.90;;;;;;;7.74;95.31;164462.53;5054819;28;20086;-67
2021/11/06 20:29:10;;;;;;;1999.90;999.90;;;;;;;7.69;95.68;164448.75;5053615;28;20424;-68
2021/11/06 20:31:39;;;;;;;1999.90;999.90;;;;;;;7.49;96.39;164393.75;5056987;28;20118;-67
2021/11/06 20:34:07;;;;;;;1999.90;999.90;;;;;;;7.66;95.62;164439.16;5054279;28;20112;-67
2021/11/06 20:36:34;;;;;;;1999.90;999.90;;;;;;;7.82;94.89;164483.13;5054663;28;20076;-67
2021/11/06 20:39:03;;;;;;;1999.90;999.90;;;;;;;7.70;95.67;164450.16;5056152;28;20109;-67
2021/11/06 20:41:30;;;;;;;1999.90;999.90;;;;;;;7.18;98.20;164311.34;5053447;28;20076;-67
2021/11/06 20:44:00;;;;;;;1999.90;999.90;;;;;;;7.39;97.86;164369.03;5055504;28;20141;-68
2021/11/06 20:46:28;;;;;;;1999.90;999.90;;;;;;;7.64;96.09;164435.03;5053802;28;20724;-68
2021/11/06 20:48:55;;;;;;;1999.90;999.90;;;;;;;7.70;95.61;164451.53;5052916;28;20076;-67
2021/11/06 20:51:23;;;;;;;1999.90;999.90;;;;;;;7.58;95.99;164418.56;5055239;28;20537;-68
2021/11/06 20:53:50;;;;;;;1999.90;999.90;;;;;;;7.71;95.59;164454.28;5054868;28;20080;-68
2021/11/06 20:56:16;;;;;;;1999.90;999.90;;;;;;;7.74;95.37;164462.53;5055041;28;20045;-68
2021/11/06 20:58:43;;;;;;;1999.90;999.90;;;;;;;7.70;95.99;164451.53;5054616;28;20432;-68
2021/11/06 21:01:09;;;;;;;1999.90;999.90;;;;;;;7.83;94.83;164484.50;5052938;28;20076;-67
2021/11/06 21:03:37;;;;;;;1999.90;999.90;;;;;;;7.53;95.54;164406.19;5053316;28;20091;-67
2021/11/06 21:06:03;;;;;;;1999.90;999.90;;;;;;;7.34;96.75;164353.91;5054744;28;20044;-67
2021/11/06 21:08:35;;;;;;;1999.90;999.90;;;;;;;7.49;96.26;164393.75;5053897;28;20139;-68
2021/11/06 21:16:17;;;;;;;1999.90;999.90;;;;;;;6.91;99.41;164239.91;5052965;28;20040;-67